sensor_id;sensor_type;location;lat;lon;timestamp;temperature;humidity
15259;DHT22;34462;51.368;12.364;2022-12-31T00:01:07;10.30;99.90
15259;DHT22;34462;51.368;12.364;2022-12-31T00:03:37;10.30;99.90
15259;DHT22;34462;51.368;12.364;2022-12-31T00:06:14;10.30;99.90
15259;DHT22;34462;51.368;12.364;2022-12-31T00:08:45;10.40;99.90
15259;DHT22;34462;51.368;12.364;2022-12-31T00:11:14;10.40;99.90
15259;DHT22;34462;51.368;12.364;2022-12-31T00:13:43;10.40;99.90
15259;DHT22;34462;51.368;12.364;2022-12-31T00:16:16;10.40;99.90
15259;DHT22;34462;51.368;12.364;2022-12-31T00:18:46;10.40;99.90
15259;DHT22;34462;51.368;12.364;2022-12-31T00:21:17;10.50;99.90
15259;DHT22;34462;51.368;12.364;2022-12-31T00:23:47;10.40;99.90
15259;DHT22;34462;51.368;12.364;2022-12-31T00:26:18;10.40;99.90
15259;DHT22;34462;51.368;12.364;2022-12-31T00:28:47;10.30;99.90
15259;DHT22;34462;51.368;12.364;2022-12-31T00:31:19;10.40;99.90
15259;DHT22;34462;51.368;12.364;2022-12-31T00:33:49;10.40;99.90
15259;DHT22;34462;51.368;12.364;2022-12-31T00:36:20;10.40;99.90
15259;DHT22;34462;51.368;12.364;2022-12-31T00:38:51;10.40;99.90
15259;DHT22;34462;51.368;12.364;2022-12-31T00:41:20;10.40;99.90
15259;DHT22;34462;51.368;12.364;2022-12-31T00:43:49;10.40;99.90
15259;DHT22;34462;51.368;12.364;2022-12-31T00:46:19;10.50;99.90
15259;DHT22;34462;51.368;12.364;2022-12-31T00:48:48;10.50;99.90
15259;DHT22;34462;51.368;12.364;2022-12-31T00:51:18;10.50;99.90
15259;DHT22;34462;51.368;12.364;2022-12-31T00:53:48;10.50;99.90
15259;DHT22;34462;51.368;12.364;2022-12-31T00:56:19;10.40;99.90
15259;DHT22;34462;51.368;12.364;2022-12-31T00:58:49;10.40;99.90
15259;DHT22;34462;51.368;12.364;2022-12-31T01:01:20;10.40;99.90
15259;DHT22;34462;51.368;12.364;2022-12-31T01:03:53;10.30;99.90
15259;DHT22;34462;51.368;12.364;2022-12-31T01:06:22;10.30;99.90
15259;DHT22;34462;51.368;12.364;2022-12-31T01:08:51;10.30;99.90
15259;DHT22;34462;51.368;12.364;2022-12-31T01:11:22;10.40;99.90
15259;DHT22;34462;51.368;12.364;2022-12-31T01:13:56;10.20;99.90
15259;DHT22;34462;51.368;12.364;2022-12-31T01:16:30;10.10;99.90
15259;DHT22;34462;51.368;12.364;2022-12-31T01:19:02;10.00;99.90
15259;DHT22;34462;51.368;12.364;2022-12-31T01:21:33;10.00;99.90
15259;DHT22;34462;51.368;12.364;2022-12-31T01:24:02;10.00;99.90
15259;DHT22;34462;51.368;12.364;2022-12-31T01:26:31;10.10;99.90
15259;DHT22;34462;51.368;12.364;2022-12-31T01:28:59;10.10;99.90
15259;DHT22;34462;51.368;12.364;2022-12-31T01:31:29;10.20;99.90
15259;DHT22;34462;51.368;12.364;2022-12-31T01:33:57;10.30;99.90
15259;DHT22;34462;51.368;12.364;2022-12-31T01:36:27;10.30;99.90
15259;DHT22;34462;51.368;12.364;2022-12-31T01:38:58;10.40;99.90
15259;DHT22;34462;51.368;12.364;2022-12-31T01:41:30;10.40;99.90
15259;DHT22;34462;51.368;12.364;2022-12-31T01:44:01;10.50;99.90
15259;DHT22;34462;51.368;12.364;2022-12-31T01:46:53;10.50;99.90
15259;DHT22;34462;51.368;12.364;2022-12-31T01:49:27;10.60;99.90
15259;DHT22;34462;51.368;12.364;2022-12-31T01:52:06;10.60;99.90
15259;DHT22;34462;51.368;12.364;2022-12-31T01:54:41;10.70;99.90
15259;DHT22;34462;51.368;12.364;2022-12-31T01:57:13;10.70;99.90
15259;DHT22;34462;51.368;12.364;2022-12-31T01:59:44;10.70;99.90
15259;DHT22;34462;51.368;12.364;2022-12-31T02:02:14;10.80;99.90
15259;DHT22;34462;51.368;12.364;2022-12-31T02:04:43;10.90;99.90
15259;DHT22;34462;51.368;12.364;2022-12-31T02:07:11;10.90;99.90
15259;DHT22;34462;51.368;12.364;2022-12-31T02:09:41;10.80;99.90
15259;DHT22;34462;51.368;12.364;2022-12-31T02:12:09;10.80;99.90
15259;DHT22;34462;51.368;12.364;2022-12-31T02:14:40;10.80;99.90
15259;DHT22;34462;51.368;12.364;2022-12-31T02:17:19;10.80;99.90
15259;DHT22;34462;51.368;12.364;2022-12-31T02:20:40;10.70;99.90
15259;DHT22;34462;51.368;12.364;2022-12-31T02:23:58;10.70;99.90
15259;DHT22;34462;51.368;12.364;2022-12-31T02:26:48;10.70;99.90
15259;DHT22;34462;51.368;12.364;2022-12-31T02:32:41;10.80;99.90
15259;DHT22;34462;51.368;12.364;2022-12-31T02:35:31;10.80;99.90
15259;DHT22;34462;51.368;12.364;2022-12-31T02:38:07;10.80;99.90
15259;DHT22;34462;51.368;12.364;2022-12-31T02:40:40;10.80;99.90
15259;DHT22;34462;51.368;12.364;2022-12-31T02:43:08;10.90;99.90
15259;DHT22;34462;51.368;12.364;2022-12-31T02:45:39;11.00;99.90
15259;DHT22;34462;51.368;12.364;2022-12-31T02:48:36;11.00;99.90
15259;DHT22;34462;51.368;12.364;2022-12-31T02:51:22;11.10;99.90
15259;DHT22;34462;51.368;12.364;2022-12-31T02:54:13;11.10;99.90
15259;DHT22;34462;51.368;12.364;2022-12-31T02:56:53;11.10;99.90
15259;DHT22;34462;51.368;12.364;2022-12-31T02:59:35;11.20;99.90
15259;DHT22;34462;51.368;12.364;2022-12-31T03:02:27;11.20;99.90
15259;DHT22;34462;51.368;12.364;2022-12-31T03:05:01;11.20;99.90
15259;DHT22;34462;51.368;12.364;2022-12-31T03:07:31;11.20;99.90
15259;DHT22;34462;51.368;12.364;2022-12-31T03:10:00;11.30;99.90
15259;DHT22;34462;51.368;12.364;2022-12-31T03:12:29;11.30;99.90
15259;DHT22;34462;51.368;12.364;2022-12-31T03:15:16;11.30;99.90
15259;DHT22;34462;51.368;12.364;2022-12-31T03:17:54;11.30;99.90
15259;DHT22;34462;51.368;12.364;2022-12-31T03:20:28;11.30;99.90
15259;DHT22;34462;51.368;12.364;2022-12-31T03:23:22;11.30;99.90
15259;DHT22;34462;51.368;12.364;2022-12-31T03:25:51;11.30;99.90
15259;DHT22;34462;51.368;12.364;2022-12-31T03:28:22;11.30;99.90
15259;DHT22;34462;51.368;12.364;2022-12-31T03:30:54;11.30;99.90
15259;DHT22;34462;51.368;12.364;2022-12-31T03:33:29;11.30;99.90
15259;DHT22;34462;51.368;12.364;2022-12-31T03:36:02;11.30;99.90
15259;DHT22;34462;51.368;12.364;2022-12-31T03:38:31;11.30;99.90
15259;DHT22;34462;51.368;12.364;2022-12-31T03:40:59;11.30;99.90
15259;DHT22;34462;51.368;12.364;2022-12-31T03:43:27;11.40;99.90
15259;DHT22;34462;51.368;12.364;2022-12-31T03:45:56;11.60;99.90
15259;DHT22;34462;51.368;12.364;2022-12-31T03:48:27;11.50;99.90
15259;DHT22;34462;51.368;12.364;2022-12-31T03:50:55;11.50;99.90
15259;DHT22;34462;51.368;12.364;2022-12-31T03:53:24;11.50;99.90
15259;DHT22;34462;51.368;12.364;2022-12-31T03:55:53;11.60;99.90
15259;DHT22;34462;51.368;12.364;2022-12-31T03:58:21;11.50;99.90
15259;DHT22;34462;51.368;12.364;2022-12-31T04:00:50;11.50;99.90
15259;DHT22;34462;51.368;12.364;2022-12-31T04:03:18;11.60;99.90
15259;DHT22;34462;51.368;12.364;2022-12-31T04:05:52;11.50;99.90
15259;DHT22;34462;51.368;12.364;2022-12-31T04:08:21;11.60;99.90
15259;DHT22;34462;51.368;12.364;2022-12-31T04:10:50;11.60;99.90
15259;DHT22;34462;51.368;12.364;2022-12-31T04:13:18;11.60;99.90
15259;DHT22;34462;51.368;12.364;2022-12-31T04:15:48;11.70;99.90
15259;DHT22;34462;51.368;12.364;2022-12-31T04:18:17;11.80;99.90
15259;DHT22;34462;51.368;12.364;2022-12-31T04:20:45;11.80;99.90
15259;DHT22;34462;51.368;12.364;2022-12-31T04:23:15;11.90;99.90
15259;DHT22;34462;51.368;12.364;2022-12-31T04:25:43;11.90;99.90
15259;DHT22;34462;51.368;12.364;2022-12-31T04:28:11;11.90;99.90
15259;DHT22;34462;51.368;12.364;2022-12-31T04:30:39;11.80;99.90
15259;DHT22;34462;51.368;12.364;2022-12-31T04:33:07;11.80;99.90
15259;DHT22;34462;51.368;12.364;2022-12-31T04:35:35;11.80;99.90
15259;DHT22;34462;51.368;12.364;2022-12-31T04:38:04;11.90;99.90
15259;DHT22;34462;51.368;12.364;2022-12-31T04:40:33;12.00;99.90
15259;DHT22;34462;51.368;12.364;2022-12-31T04:43:21;12.10;99.90
15259;DHT22;34462;51.368;12.364;2022-12-31T04:45:49;12.20;99.90
15259;DHT22;34462;51.368;12.364;2022-12-31T04:48:18;12.30;99.90
15259;DHT22;34462;51.368;12.364;2022-12-31T04:50:46;12.30;99.90
15259;DHT22;34462;51.368;12.364;2022-12-31T04:53:14;12.30;99.90
15259;DHT22;34462;51.368;12.364;2022-12-31T04:55:44;12.40;99.90
15259;DHT22;34462;51.368;12.364;2022-12-31T04:58:12;12.50;99.90
15259;DHT22;34462;51.368;12.364;2022-12-31T05:00:40;12.50;99.90
15259;DHT22;34462;51.368;12.364;2022-12-31T05:03:10;12.50;99.90
15259;DHT22;34462;51.368;12.364;2022-12-31T05:05:38;12.50;99.90
15259;DHT22;34462;51.368;12.364;2022-12-31T05:08:08;12.50;99.90
15259;DHT22;34462;51.368;12.364;2022-12-31T05:10:43;12.50;99.90
15259;DHT22;34462;51.368;12.364;2022-12-31T05:13:13;12.50;99.90
15259;DHT22;34462;51.368;12.364;2022-12-31T05:15:42;12.60;99.90
15259;DHT22;34462;51.368;12.364;2022-12-31T05:18:10;12.70;99.90
15259;DHT22;34462;51.368;12.364;2022-12-31T05:20:38;12.70;99.90
15259;DHT22;34462;51.368;12.364;2022-12-31T05:23:06;12.60;99.90
15259;DHT22;34462;51.368;12.364;2022-12-31T05:25:35;12.60;99.90
15259;DHT22;34462;51.368;12.364;2022-12-31T05:28:05;12.60;99.90
15259;DHT22;34462;51.368;12.364;2022-12-31T05:30:33;12.60;99.90
15259;DHT22;34462;51.368;12.364;2022-12-31T05:33:01;12.60;99.90
15259;DHT22;34462;51.368;12.364;2022-12-31T05:35:29;12.70;99.90
15259;DHT22;34462;51.368;12.364;2022-12-31T05:37:59;12.70;99.90
15259;DHT22;34462;51.368;12.364;2022-12-31T05:40:27;12.70;99.90
15259;DHT22;34462;51.368;12.364;2022-12-31T05:42:56;12.70;99.90
15259;DHT22;34462;51.368;12.364;2022-12-31T05:45:25;12.70;99.90
15259;DHT22;34462;51.368;12.364;2022-12-31T05:47:57;12.60;99.90
15259;DHT22;34462;51.368;12.364;2022-12-31T05:50:25;12.60;99.90
15259;DHT22;34462;51.368;12.364;2022-12-31T05:52:53;12.70;99.90
15259;DHT22;34462;51.368;12.364;2022-12-31T05:55:21;12.80;99.90
15259;DHT22;34462;51.368;12.364;2022-12-31T05:57:50;12.90;99.90
15259;DHT22;34462;51.368;12.364;2022-12-31T06:00:18;12.90;99.90
15259;DHT22;34462;51.368;12.364;2022-12-31T06:02:48;12.90;99.90
15259;DHT22;34462;51.368;12.364;2022-12-31T06:05:16;12.90;99.90
15259;DHT22;34462;51.368;12.364;2022-12-31T06:07:51;12.90;99.90
15259;DHT22;34462;51.368;12.364;2022-12-31T06:10:20;13.00;99.90
15259;DHT22;34462;51.368;12.364;2022-12-31T06:12:48;13.00;99.90
15259;DHT22;34462;51.368;12.364;2022-12-31T06:15:16;13.00;99.90
15259;DHT22;34462;51.368;12.364;2022-12-31T06:17:44;13.00;99.90
15259;DHT22;34462;51.368;12.364;2022-12-31T06:20:14;13.00;99.90
15259;DHT22;34462;51.368;12.364;2022-12-31T06:22:42;13.10;99.90
15259;DHT22;34462;51.368;12.364;2022-12-31T06:25:10;13.10;99.90
15259;DHT22;34462;51.368;12.364;2022-12-31T06:27:38;13.10;99.90
15259;DHT22;34462;51.368;12.364;2022-12-31T06:30:08;13.10;99.90
15259;DHT22;34462;51.368;12.364;2022-12-31T06:32:37;13.10;99.90
15259;DHT22;34462;51.368;12.364;2022-12-31T06:35:07;13.10;99.90
15259;DHT22;34462;51.368;12.364;2022-12-31T06:37:36;13.30;99.90
15259;DHT22;34462;51.368;12.364;2022-12-31T06:40:06;13.30;99.90
15259;DHT22;34462;51.368;12.364;2022-12-31T06:42:35;13.30;99.90
15259;DHT22;34462;51.368;12.364;2022-12-31T06:45:03;13.30;99.90
15259;DHT22;34462;51.368;12.364;2022-12-31T06:47:32;13.40;99.90
15259;DHT22;34462;51.368;12.364;2022-12-31T06:50:00;13.40;99.90
15259;DHT22;34462;51.368;12.364;2022-12-31T06:52:29;13.40;99.90
15259;DHT22;34462;51.368;12.364;2022-12-31T06:54:59;13.40;99.90
15259;DHT22;34462;51.368;12.364;2022-12-31T06:57:28;13.40;99.90
15259;DHT22;34462;51.368;12.364;2022-12-31T06:59:57;13.50;99.90
15259;DHT22;34462;51.368;12.364;2022-12-31T07:02:41;13.60;99.90
15259;DHT22;34462;51.368;12.364;2022-12-31T07:05:40;13.60;99.90
15259;DHT22;34462;51.368;12.364;2022-12-31T07:08:25;13.70;99.90
15259;DHT22;34462;51.368;12.364;2022-12-31T07:11:06;13.80;99.90
15259;DHT22;34462;51.368;12.364;2022-12-31T07:14:02;13.80;99.90
15259;DHT22;34462;51.368;12.364;2022-12-31T07:16:50;13.90;99.90
15259;DHT22;34462;51.368;12.364;2022-12-31T07:19:37;13.90;99.90
15259;DHT22;34462;51.368;12.364;2022-12-31T07:22:13;13.90;99.90
15259;DHT22;34462;51.368;12.364;2022-12-31T07:24:43;14.00;99.90
15259;DHT22;34462;51.368;12.364;2022-12-31T07:27:33;13.90;99.90
15259;DHT22;34462;51.368;12.364;2022-12-31T07:30:11;14.10;99.90
15259;DHT22;34462;51.368;12.364;2022-12-31T07:33:10;14.10;99.90
15259;DHT22;34462;51.368;12.364;2022-12-31T07:35:54;14.10;99.90
15259;DHT22;34462;51.368;12.364;2022-12-31T07:38:36;14.10;99.90
15259;DHT22;34462;51.368;12.364;2022-12-31T07:41:16;14.10;99.90
15259;DHT22;34462;51.368;12.364;2022-12-31T07:44:04;14.10;99.90
15259;DHT22;34462;51.368;12.364;2022-12-31T07:46:42;14.10;99.90
15259;DHT22;34462;51.368;12.364;2022-12-31T07:49:19;14.10;99.90
15259;DHT22;34462;51.368;12.364;2022-12-31T07:51:48;14.10;99.90
15259;DHT22;34462;51.368;12.364;2022-12-31T07:54:17;14.20;99.90
15259;DHT22;34462;51.368;12.364;2022-12-31T07:56:46;14.10;99.90
15259;DHT22;34462;51.368;12.364;2022-12-31T07:59:30;14.20;99.90
15259;DHT22;34462;51.368;12.364;2022-12-31T08:02:23;14.20;99.90
15259;DHT22;34462;51.368;12.364;2022-12-31T08:05:11;14.20;99.90
15259;DHT22;34462;51.368;12.364;2022-12-31T08:07:52;14.20;99.90
15259;DHT22;34462;51.368;12.364;2022-12-31T08:10:31;14.20;99.90
15259;DHT22;34462;51.368;12.364;2022-12-31T08:13:09;14.20;99.90
15259;DHT22;34462;51.368;12.364;2022-12-31T08:15:40;14.20;99.90
15259;DHT22;34462;51.368;12.364;2022-12-31T08:18:09;14.20;99.90
15259;DHT22;34462;51.368;12.364;2022-12-31T08:20:42;14.20;99.90
15259;DHT22;34462;51.368;12.364;2022-12-31T08:23:20;14.30;99.90
15259;DHT22;34462;51.368;12.364;2022-12-31T08:26:02;14.20;99.90
15259;DHT22;34462;51.368;12.364;2022-12-31T08:28:53;14.30;99.90
15259;DHT22;34462;51.368;12.364;2022-12-31T08:31:36;14.20;99.90
15259;DHT22;34462;51.368;12.364;2022-12-31T08:34:17;14.30;99.90
15259;DHT22;34462;51.368;12.364;2022-12-31T08:36:55;14.40;99.90
15259;DHT22;34462;51.368;12.364;2022-12-31T08:39:40;14.40;99.90
15259;DHT22;34462;51.368;12.364;2022-12-31T08:42:26;14.50;99.90
15259;DHT22;34462;51.368;12.364;2022-12-31T08:45:03;14.50;99.90
15259;DHT22;34462;51.368;12.364;2022-12-31T08:47:46;14.50;99.90
15259;DHT22;34462;51.368;12.364;2022-12-31T08:50:27;14.50;99.90
15259;DHT22;34462;51.368;12.364;2022-12-31T08:52:56;14.50;99.90
15259;DHT22;34462;51.368;12.364;2022-12-31T08:55:26;14.50;99.90
15259;DHT22;34462;51.368;12.364;2022-12-31T08:58:05;14.60;99.90
15259;DHT22;34462;51.368;12.364;2022-12-31T09:00:40;14.60;99.90
15259;DHT22;34462;51.368;12.364;2022-12-31T09:06:29;14.60;99.90
15259;DHT22;34462;51.368;12.364;2022-12-31T09:09:05;14.60;99.90
15259;DHT22;34462;51.368;12.364;2022-12-31T09:11:48;14.70;99.90
15259;DHT22;34462;51.368;12.364;2022-12-31T09:14:33;14.70;99.90
15259;DHT22;34462;51.368;12.364;2022-12-31T09:20:19;14.80;99.90
15259;DHT22;34462;51.368;12.364;2022-12-31T09:22:51;14.90;99.90
15259;DHT22;34462;51.368;12.364;2022-12-31T09:25:21;15.00;99.90
15259;DHT22;34462;51.368;12.364;2022-12-31T09:27:59;15.10;99.90
15259;DHT22;34462;51.368;12.364;2022-12-31T09:30:39;15.00;99.90
15259;DHT22;34462;51.368;12.364;2022-12-31T09:33:19;15.20;99.90
15259;DHT22;34462;51.368;12.364;2022-12-31T09:36:02;15.30;99.90
15259;DHT22;34462;51.368;12.364;2022-12-31T09:38:38;15.40;99.90
15259;DHT22;34462;51.368;12.364;2022-12-31T09:41:15;15.40;99.90
15259;DHT22;34462;51.368;12.364;2022-12-31T09:48:13;15.60;99.90
15259;DHT22;34462;51.368;12.364;2022-12-31T09:54:23;15.70;99.90
15259;DHT22;34462;51.368;12.364;2022-12-31T09:57:14;15.80;99.90
15259;DHT22;34462;51.368;12.364;2022-12-31T10:00:00;15.80;99.90
15259;DHT22;34462;51.368;12.364;2022-12-31T10:02:50;15.80;99.90
15259;DHT22;34462;51.368;12.364;2022-12-31T10:05:53;15.90;99.90
15259;DHT22;34462;51.368;12.364;2022-12-31T10:08:45;16.00;99.90
15259;DHT22;34462;51.368;12.364;2022-12-31T10:11:36;16.10;99.90
15259;DHT22;34462;51.368;12.364;2022-12-31T10:14:32;16.10;99.90
15259;DHT22;34462;51.368;12.364;2022-12-31T10:17:29;16.10;99.90
15259;DHT22;34462;51.368;12.364;2022-12-31T10:20:29;16.20;99.90
15259;DHT22;34462;51.368;12.364;2022-12-31T10:23:20;16.20;99.90
15259;DHT22;34462;51.368;12.364;2022-12-31T10:26:19;16.30;99.90
15259;DHT22;34462;51.368;12.364;2022-12-31T10:29:01;16.30;99.90
15259;DHT22;34462;51.368;12.364;2022-12-31T10:31:41;16.30;99.90
15259;DHT22;34462;51.368;12.364;2022-12-31T10:34:25;16.40;99.90
15259;DHT22;34462;51.368;12.364;2022-12-31T10:37:05;16.40;99.90
15259;DHT22;34462;51.368;12.364;2022-12-31T10:39:47;16.50;99.90
15259;DHT22;34462;51.368;12.364;2022-12-31T10:42:41;16.60;99.90
15259;DHT22;34462;51.368;12.364;2022-12-31T10:46:17;16.80;99.90
15259;DHT22;34462;51.368;12.364;2022-12-31T10:49:25;16.80;99.90
15259;DHT22;34462;51.368;12.364;2022-12-31T10:52:55;17.10;99.90
15259;DHT22;34462;51.368;12.364;2022-12-31T10:59:35;17.20;99.90
15259;DHT22;34462;51.368;12.364;2022-12-31T11:05:58;17.10;99.90
15259;DHT22;34462;51.368;12.364;2022-12-31T11:12:18;17.10;99.90
15259;DHT22;34462;51.368;12.364;2022-12-31T11:15:21;17.00;99.90
15259;DHT22;34462;51.368;12.364;2022-12-31T11:18:12;16.90;99.90
15259;DHT22;34462;51.368;12.364;2022-12-31T11:21:04;16.80;99.90
15259;DHT22;34462;51.368;12.364;2022-12-31T11:23:49;16.70;99.90
15259;DHT22;34462;51.368;12.364;2022-12-31T11:26:39;16.70;99.90
15259;DHT22;34462;51.368;12.364;2022-12-31T11:29:28;16.70;99.90
15259;DHT22;34462;51.368;12.364;2022-12-31T11:32:21;16.70;99.90
15259;DHT22;34462;51.368;12.364;2022-12-31T11:35:17;16.70;99.90
15259;DHT22;34462;51.368;12.364;2022-12-31T11:37:51;16.70;99.90
15259;DHT22;34462;51.368;12.364;2022-12-31T11:40:53;16.80;99.90
15259;DHT22;34462;51.368;12.364;2022-12-31T11:43:32;16.70;99.90
15259;DHT22;34462;51.368;12.364;2022-12-31T11:46:20;16.70;99.90
15259;DHT22;34462;51.368;12.364;2022-12-31T11:49:10;16.70;99.90
15259;DHT22;34462;51.368;12.364;2022-12-31T11:51:59;16.80;99.90
15259;DHT22;34462;51.368;12.364;2022-12-31T11:55:14;16.70;99.90
15259;DHT22;34462;51.368;12.364;2022-12-31T11:57:54;16.80;99.90
15259;DHT22;34462;51.368;12.364;2022-12-31T12:00:29;16.70;99.90
15259;DHT22;34462;51.368;12.364;2022-12-31T12:03:02;16.70;99.90
15259;DHT22;34462;51.368;12.364;2022-12-31T12:05:34;16.60;99.90
15259;DHT22;34462;51.368;12.364;2022-12-31T12:08:03;16.50;99.90
15259;DHT22;34462;51.368;12.364;2022-12-31T12:10:35;16.40;99.90
15259;DHT22;34462;51.368;12.364;2022-12-31T12:13:12;16.40;99.90
15259;DHT22;34462;51.368;12.364;2022-12-31T12:15:48;16.40;99.90
15259;DHT22;34462;51.368;12.364;2022-12-31T12:18:31;16.50;99.90
15259;DHT22;34462;51.368;12.364;2022-12-31T12:21:09;16.50;99.90
15259;DHT22;34462;51.368;12.364;2022-12-31T12:23:41;16.70;99.90
15259;DHT22;34462;51.368;12.364;2022-12-31T12:26:31;16.70;99.90
15259;DHT22;34462;51.368;12.364;2022-12-31T12:29:08;16.70;99.90
15259;DHT22;34462;51.368;12.364;2022-12-31T12:31:37;16.70;99.90
15259;DHT22;34462;51.368;12.364;2022-12-31T12:34:21;16.70;99.90
15259;DHT22;34462;51.368;12.364;2022-12-31T12:36:52;16.70;99.90
15259;DHT22;34462;51.368;12.364;2022-12-31T12:39:22;16.70;99.90
15259;DHT22;34462;51.368;12.364;2022-12-31T12:42:01;16.70;99.90
15259;DHT22;34462;51.368;12.364;2022-12-31T12:44:34;16.80;99.90
15259;DHT22;34462;51.368;12.364;2022-12-31T12:47:04;16.80;99.90
15259;DHT22;34462;51.368;12.364;2022-12-31T12:49:38;16.90;99.90
15259;DHT22;34462;51.368;12.364;2022-12-31T12:52:24;17.00;99.90
15259;DHT22;34462;51.368;12.364;2022-12-31T12:55:18;17.00;99.90
15259;DHT22;34462;51.368;12.364;2022-12-31T12:57:59;16.90;99.90
15259;DHT22;34462;51.368;12.364;2022-12-31T13:00:45;17.00;99.90
15259;DHT22;34462;51.368;12.364;2022-12-31T13:03:43;17.00;99.90
15259;DHT22;34462;51.368;12.364;2022-12-31T13:06:57;17.00;99.90
15259;DHT22;34462;51.368;12.364;2022-12-31T13:09:49;17.00;99.90
15259;DHT22;34462;51.368;12.364;2022-12-31T13:12:31;17.00;99.90
15259;DHT22;34462;51.368;12.364;2022-12-31T13:15:31;16.90;99.90
15259;DHT22;34462;51.368;12.364;2022-12-31T13:18:12;16.90;99.90
15259;DHT22;34462;51.368;12.364;2022-12-31T13:20:52;16.90;99.90
15259;DHT22;34462;51.368;12.364;2022-12-31T13:23:33;16.90;99.90
15259;DHT22;34462;51.368;12.364;2022-12-31T13:26:12;16.80;99.90
15259;DHT22;34462;51.368;12.364;2022-12-31T13:28:49;16.80;99.90
15259;DHT22;34462;51.368;12.364;2022-12-31T13:31:23;16.70;99.90
15259;DHT22;34462;51.368;12.364;2022-12-31T13:33:59;16.80;99.90
15259;DHT22;34462;51.368;12.364;2022-12-31T13:36:34;16.70;99.90
15259;DHT22;34462;51.368;12.364;2022-12-31T13:39:13;16.80;99.90
15259;DHT22;34462;51.368;12.364;2022-12-31T13:41:49;16.70;99.90
15259;DHT22;34462;51.368;12.364;2022-12-31T13:44:27;16.70;99.90
15259;DHT22;34462;51.368;12.364;2022-12-31T13:47:02;16.70;99.90
15259;DHT22;34462;51.368;12.364;2022-12-31T13:49:42;16.70;99.90
15259;DHT22;34462;51.368;12.364;2022-12-31T13:52:21;16.70;99.90
15259;DHT22;34462;51.368;12.364;2022-12-31T13:55:02;16.70;99.90
15259;DHT22;34462;51.368;12.364;2022-12-31T13:57:42;16.70;99.90
15259;DHT22;34462;51.368;12.364;2022-12-31T14:00:19;16.70;99.90
15259;DHT22;34462;51.368;12.364;2022-12-31T14:02:55;16.60;99.90
15259;DHT22;34462;51.368;12.364;2022-12-31T14:05:33;16.60;99.90
15259;DHT22;34462;51.368;12.364;2022-12-31T14:08:07;16.50;99.90
15259;DHT22;34462;51.368;12.364;2022-12-31T14:10:42;16.50;99.90
15259;DHT22;34462;51.368;12.364;2022-12-31T14:13:33;16.50;99.90
15259;DHT22;34462;51.368;12.364;2022-12-31T14:16:16;16.50;99.90
15259;DHT22;34462;51.368;12.364;2022-12-31T14:18:59;16.50;99.90
15259;DHT22;34462;51.368;12.364;2022-12-31T14:21:38;16.50;99.90
15259;DHT22;34462;51.368;12.364;2022-12-31T14:24:13;16.50;99.90
15259;DHT22;34462;51.368;12.364;2022-12-31T14:26:50;16.40;99.90
15259;DHT22;34462;51.368;12.364;2022-12-31T14:29:30;16.50;99.90
15259;DHT22;34462;51.368;12.364;2022-12-31T14:32:24;16.40;99.90
15259;DHT22;34462;51.368;12.364;2022-12-31T14:35:35;16.30;99.90
15259;DHT22;34462;51.368;12.364;2022-12-31T14:38:13;16.20;99.90
15259;DHT22;34462;51.368;12.364;2022-12-31T14:40:55;16.30;99.90
15259;DHT22;34462;51.368;12.364;2022-12-31T14:43:38;16.20;99.90
15259;DHT22;34462;51.368;12.364;2022-12-31T14:46:23;16.20;99.90
15259;DHT22;34462;51.368;12.364;2022-12-31T14:49:06;16.20;99.90
15259;DHT22;34462;51.368;12.364;2022-12-31T14:51:50;16.20;99.90
15259;DHT22;34462;51.368;12.364;2022-12-31T14:54:26;16.10;99.90
15259;DHT22;34462;51.368;12.364;2022-12-31T14:57:09;16.10;99.90
15259;DHT22;34462;51.368;12.364;2022-12-31T14:59:38;16.10;99.90
15259;DHT22;34462;51.368;12.364;2022-12-31T15:02:25;16.00;99.90
15259;DHT22;34462;51.368;12.364;2022-12-31T15:05:12;16.00;99.90
15259;DHT22;34462;51.368;12.364;2022-12-31T15:07:52;16.00;99.90
15259;DHT22;34462;51.368;12.364;2022-12-31T15:10:39;16.00;99.90
15259;DHT22;34462;51.368;12.364;2022-12-31T15:13:26;15.90;99.90
15259;DHT22;34462;51.368;12.364;2022-12-31T15:16:26;15.90;99.90
15259;DHT22;34462;51.368;12.364;2022-12-31T15:19:40;15.90;99.90
15259;DHT22;34462;51.368;12.364;2022-12-31T15:22:31;15.90;99.90
15259;DHT22;34462;51.368;12.364;2022-12-31T15:25:26;15.70;99.90
15259;DHT22;34462;51.368;12.364;2022-12-31T15:28:07;15.70;99.90
15259;DHT22;34462;51.368;12.364;2022-12-31T15:31:01;15.70;99.90
15259;DHT22;34462;51.368;12.364;2022-12-31T15:33:35;15.60;99.90
15259;DHT22;34462;51.368;12.364;2022-12-31T15:36:15;15.60;99.90
15259;DHT22;34462;51.368;12.364;2022-12-31T15:38:45;15.50;99.90
15259;DHT22;34462;51.368;12.364;2022-12-31T15:41:25;15.40;99.90
15259;DHT22;34462;51.368;12.364;2022-12-31T15:43:58;15.50;99.90
15259;DHT22;34462;51.368;12.364;2022-12-31T15:46:37;15.70;99.90
15259;DHT22;34462;51.368;12.364;2022-12-31T15:49:10;15.60;99.90
15259;DHT22;34462;51.368;12.364;2022-12-31T15:51:47;15.60;99.90
15259;DHT22;34462;51.368;12.364;2022-12-31T15:54:23;15.50;99.90
15259;DHT22;34462;51.368;12.364;2022-12-31T15:56:54;15.60;99.90
15259;DHT22;34462;51.368;12.364;2022-12-31T15:59:23;15.50;99.90
15259;DHT22;34462;51.368;12.364;2022-12-31T16:01:54;15.50;99.90
15259;DHT22;34462;51.368;12.364;2022-12-31T16:04:25;15.40;99.90
15259;DHT22;34462;51.368;12.364;2022-12-31T16:06:59;15.40;99.90
15259;DHT22;34462;51.368;12.364;2022-12-31T16:09:31;15.40;99.90
15259;DHT22;34462;51.368;12.364;2022-12-31T16:12:07;15.40;99.90
15259;DHT22;34462;51.368;12.364;2022-12-31T16:14:39;15.40;99.90
15259;DHT22;34462;51.368;12.364;2022-12-31T16:17:24;15.40;99.90
15259;DHT22;34462;51.368;12.364;2022-12-31T16:19:55;15.50;99.90
15259;DHT22;34462;51.368;12.364;2022-12-31T16:22:28;15.50;99.90
15259;DHT22;34462;51.368;12.364;2022-12-31T16:25:03;15.50;99.90
15259;DHT22;34462;51.368;12.364;2022-12-31T16:27:53;15.50;99.90
15259;DHT22;34462;51.368;12.364;2022-12-31T16:30:25;15.50;99.90
15259;DHT22;34462;51.368;12.364;2022-12-31T16:32:57;15.50;99.90
15259;DHT22;34462;51.368;12.364;2022-12-31T16:35:28;15.50;99.90
15259;DHT22;34462;51.368;12.364;2022-12-31T16:38:17;15.50;99.90
15259;DHT22;34462;51.368;12.364;2022-12-31T16:41:06;15.50;99.90
15259;DHT22;34462;51.368;12.364;2022-12-31T16:43:42;15.60;99.90
15259;DHT22;34462;51.368;12.364;2022-12-31T16:46:15;15.50;99.90
15259;DHT22;34462;51.368;12.364;2022-12-31T16:48:48;15.50;99.90